Alto Sucuriu, Brazil
Current Conditions -  °F | °C
As of 3:00 PM on Sunday 25 Jan 2015 (Local Time) from SBCG Reporting Station
Scattered Clouds Scattered Clouds  
Wind Chill: 81°   Ceiling: Unl
Heat Index: 83°   Visibility: 6mi
Dew Point: 66°   Wind: 12mph
Humidity: 61%   Direction: 340°NNW
Pressure: 29.91"   Gusts: NA
Location:  19.32°S, 52.73°W
Report Text: SBCG 251800Z 34010KT 9999 SCT030 FEW040TCU SCT100 27/19 Q1013
Loading
Personal Weather Stations






























Interactive Weather Map New forecast layout! Learn more

10-Day Weather Forecast

Advertisements
Track Severe Weather on mobile